Aérodrome :
LOGIN :

S'inscrire | Disclaimer

   EN    FR    IT 

 










Légende :    VFR   VFR Marginal   IFR   IFR Intensif   IFR Très Intensif
Visi : 
Plafond : 
>= 8 km
>= 3000ft
5 à 8 km
1000 à 3000 ft
1500m à 5 km
500 à 1000 ft
800 à 1500m
200 à 500 ft
< 800m
< 200 ft
Symboles :   Orages  Brouillard  Fortes neiges  Fortes précipitations  Vent > 20 kt
SIGMETs :   Divers  Orages  Givrage  Turbulence  Onde Orograph.  Cendres Volcan.







- Altitude de l'aérodrome : 87 ft
- Code IATA : FSC
- Voir les cartes d'approche


LFKF - Figari

DERNIER METAR :
  • 291100Z AUTO VRB08KT 9999 SCT060 19/05 Q1015 NOSIG

METARs EXPIRÉS :
  • 291030Z AUTO 06009KT 030V130 CAVOK 19/05 Q1015 NOSIG
  • 291000Z AUTO 10006KT 040V200 9999 FEW048 19/05 Q1015 NOSIG
  • 290930Z AUTO 07007G17KT 030V110 9999 FEW048 18/06 Q1015 NOSIG
  • 290900Z AUTO 10007KT 040V170 CAVOK 18/06 Q1015 NOSIG
  • 290830Z AUTO 08005KT 030V140 9999 FEW042 18/07 Q1015 NOSIG

TAF TAF LFKF
Valide du 29 à 09h jusqu'au 30 à 09h UTC


290800Z 2909/3009 07006KT CAVOK
BECMG 2910/2912 14010KT
BECMG 2917/2919 VRB04KT
Pas de NOTAMs connus pour ce terrain.



MET'MAP, la Météo Aéronautique d'un coup d'oeil ! - Copyright ORBIFLY Décembre 2007 - Disclaimer

ORBIFLY MET'MAP TEAM :

Programmation & Développement : Alexandra Zaïnal
Conception & Développement : Baudouin d'Aumeries
Co-Programmation & Développement : Marc-Olivier Méhu
Soutien technique & logistique : Manuel Goepfert

Contact : metmap@orbifly.com




SOURCES & CREDITS :

   NOAA